Alfred, North Dakota
Current Conditions -  °F | °C
As of 9:56 PM on Wednesday 22 Oct 2014 (Local Time) from KJMS Reporting Station
Clear Clear  
Wind Chill: 46°   Ceiling: Unl
Heat Index: 48°   Visibility: 10mi
Dew Point: 43°   Wind: 5mph
Humidity: 83%   Direction: 240°WSW
Pressure: 29.88"   Gusts: NA
Location:  46.4882°N, 98.8135°W
Report Text: KJMS 230256Z AUTO 24004KT 10SM CLR 09/06 A2988 RMK AO2 SLP125 T00890061 53009
Loading
Personal Weather Stations






























Interactive Weather Map New forecast layout! Learn more

10-Day Weather Forecast

Advertisements
Track Severe Weather on mobile